sensor_id;sensor_type;location;lat;lon;timestamp;pressure;altitude;pressure_sealevel;temperature;humidity
64602;BME280;68371;42.630;23.192;2023-08-30T00:01:04;91576.09;;;19.64;87.31
64602;BME280;68371;42.630;23.192;2023-08-30T00:03:31;91572.28;;;19.65;87.64
64602;BME280;68371;42.630;23.192;2023-08-30T00:06:03;91566.63;;;19.63;87.27
64602;BME280;68371;42.630;23.192;2023-08-30T00:08:31;91568.44;;;19.66;86.95
64602;BME280;68371;42.630;23.192;2023-08-30T00:10:59;91576.66;;;19.55;87.11
64602;BME280;68371;42.630;23.192;2023-08-30T00:13:29;91574.00;;;19.55;86.74
64602;BME280;68371;42.630;23.192;2023-08-30T00:15:55;91566.41;;;19.54;86.65
64602;BME280;68371;42.630;23.192;2023-08-30T00:18:22;91571.22;;;19.42;87.44
64602;BME280;68371;42.630;23.192;2023-08-30T00:20:49;91564.72;;;19.44;87.38
64602;BME280;68371;42.630;23.192;2023-08-30T00:23:16;91561.41;;;19.36;87.89
64602;BME280;68371;42.630;23.192;2023-08-30T00:25:44;91558.41;;;19.14;88.27
64602;BME280;68371;42.630;23.192;2023-08-30T00:28:11;91554.09;;;19.20;88.27
64602;BME280;68371;42.630;23.192;2023-08-30T00:30:37;91564.69;;;19.24;87.83
64602;BME280;68371;42.630;23.192;2023-08-30T00:33:04;91566.16;;;19.28;87.92
64602;BME280;68371;42.630;23.192;2023-08-30T00:35:31;91563.66;;;19.17;87.97
64602;BME280;68371;42.630;23.192;2023-08-30T00:37:58;91568.59;;;19.19;87.29
64602;BME280;68371;42.630;23.192;2023-08-30T00:40:24;91568.59;;;19.19;87.14
64602;BME280;68371;42.630;23.192;2023-08-30T00:42:53;91565.09;;;19.22;87.37
64602;BME280;68371;42.630;23.192;2023-08-30T00:45:19;91570.44;;;19.22;87.04
64602;BME280;68371;42.630;23.192;2023-08-30T00:47:46;91577.03;;;19.14;87.04
64602;BME280;68371;42.630;23.192;2023-08-30T00:50:13;91577.03;;;19.14;87.07
64602;BME280;68371;42.630;23.192;2023-08-30T00:52:41;91586.31;;;19.06;87.20
64602;BME280;68371;42.630;23.192;2023-08-30T00:55:09;91577.84;;;18.91;87.36
64602;BME280;68371;42.630;23.192;2023-08-30T00:57:36;91584.59;;;18.95;87.53
64602;BME280;68371;42.630;23.192;2023-08-30T01:00:07;91584.53;;;18.99;87.87
64602;BME280;68371;42.630;23.192;2023-08-30T01:02:35;91580.03;;;18.96;88.63
64602;BME280;68371;42.630;23.192;2023-08-30T01:05:02;91576.22;;;18.97;88.87
64602;BME280;68371;42.630;23.192;2023-08-30T01:07:29;91576.34;;;18.90;88.20
64602;BME280;68371;42.630;23.192;2023-08-30T01:09:56;91577.84;;;18.91;87.51
64602;BME280;68371;42.630;23.192;2023-08-30T01:12:26;91576.59;;;18.95;88.08
64602;BME280;68371;42.630;23.192;2023-08-30T01:15:00;91580.91;;;18.89;88.28
64602;BME280;68371;42.630;23.192;2023-08-30T01:17:30;91583.16;;;18.91;88.78
64602;BME280;68371;42.630;23.192;2023-08-30T01:20:00;91597.91;;;18.95;88.64
64602;BME280;68371;42.630;23.192;2023-08-30T01:22:39;91596.69;;;19.00;88.47
64602;BME280;68371;42.630;23.192;2023-08-30T01:25:16;91591.72;;;19.02;88.38
64602;BME280;68371;42.630;23.192;2023-08-30T01:27:47;91592.66;;;18.92;88.35
64602;BME280;68371;42.630;23.192;2023-08-30T01:30:15;91605.66;;;18.86;88.86
64602;BME280;68371;42.630;23.192;2023-08-30T01:32:43;91586.44;;;18.75;89.21
64602;BME280;68371;42.630;23.192;2023-08-30T01:35:11;91594.19;;;18.89;89.15
64602;BME280;68371;42.630;23.192;2023-08-30T01:37:43;91597.69;;;18.86;88.90
64602;BME280;68371;42.630;23.192;2023-08-30T01:40:11;91582.53;;;18.83;88.80
64602;BME280;68371;42.630;23.192;2023-08-30T01:42:38;91586.31;;;18.86;88.74
64602;BME280;68371;42.630;23.192;2023-08-30T01:45:09;91586.22;;;18.89;88.91
64602;BME280;68371;42.630;23.192;2023-08-30T01:47:39;91580.16;;;18.89;88.45
64602;BME280;68371;42.630;23.192;2023-08-30T01:50:08;91584.09;;;18.80;88.57
64602;BME280;68371;42.630;23.192;2023-08-30T01:52:36;91583.72;;;18.78;88.50
64602;BME280;68371;42.630;23.192;2023-08-30T01:55:05;91588.66;;;18.80;88.09
64602;BME280;68371;42.630;23.192;2023-08-30T01:57:32;91586.22;;;18.66;88.40
64602;BME280;68371;42.630;23.192;2023-08-30T01:59:59;91586.31;;;18.58;87.45
64602;BME280;68371;42.630;23.192;2023-08-30T02:02:29;91588.97;;;18.58;87.71
64602;BME280;68371;42.630;23.192;2023-08-30T02:04:56;91593.44;;;18.65;86.73
64602;BME280;68371;42.630;23.192;2023-08-30T02:07:26;91588.59;;;18.60;86.97
64602;BME280;68371;42.630;23.192;2023-08-30T02:09:58;91588.28;;;18.54;86.39
64602;BME280;68371;42.630;23.192;2023-08-30T02:12:42;91586.16;;;18.46;85.97
64602;BME280;68371;42.630;23.192;2023-08-30T02:15:10;91574.88;;;18.38;86.43
64602;BME280;68371;42.630;23.192;2023-08-30T02:17:40;91580.22;;;18.34;86.79
64602;BME280;68371;42.630;23.192;2023-08-30T02:20:07;91581.31;;;18.37;86.19
64602;BME280;68371;42.630;23.192;2023-08-30T02:22:33;91572.59;;;18.36;86.06
64602;BME280;68371;42.630;23.192;2023-08-30T02:25:01;91571.84;;;18.36;85.69
64602;BME280;68371;42.630;23.192;2023-08-30T02:27:30;91577.63;;;18.31;85.64
64602;BME280;68371;42.630;23.192;2023-08-30T02:29:57;91578.44;;;18.28;84.98
64602;BME280;68371;42.630;23.192;2023-08-30T02:32:23;91575.06;;;18.24;85.44
64602;BME280;68371;42.630;23.192;2023-08-30T02:34:52;91573.28;;;18.17;85.53
64602;BME280;68371;42.630;23.192;2023-08-30T02:37:19;91575.28;;;18.09;85.50
64602;BME280;68371;42.630;23.192;2023-08-30T02:39:46;91567.81;;;18.00;86.00
64602;BME280;68371;42.630;23.192;2023-08-30T02:42:13;91567.72;;;18.08;85.86
64602;BME280;68371;42.630;23.192;2023-08-30T02:44:39;91564.31;;;18.07;85.58
64602;BME280;68371;42.630;23.192;2023-08-30T02:47:06;91561.75;;;18.00;85.04
64602;BME280;68371;42.630;23.192;2023-08-30T02:49:33;91565.91;;;18.01;85.47
64602;BME280;68371;42.630;23.192;2023-08-30T02:52:01;91563.69;;;17.96;85.35
64602;BME280;68371;42.630;23.192;2023-08-30T02:54:28;91562.19;;;17.95;85.19
64602;BME280;68371;42.630;23.192;2023-08-30T02:56:54;91561.94;;;17.86;85.08
64602;BME280;68371;42.630;23.192;2023-08-30T02:59:21;91561.94;;;17.86;85.20
64602;BME280;68371;42.630;23.192;2023-08-30T03:01:48;91560.44;;;17.85;84.93
64602;BME280;68371;42.630;23.192;2023-08-30T03:04:14;91566.97;;;17.76;84.86
64602;BME280;68371;42.630;23.192;2023-08-30T03:06:41;91569.81;;;17.62;85.04
64602;BME280;68371;42.630;23.192;2023-08-30T03:09:09;91567.59;;;17.57;85.14
64602;BME280;68371;42.630;23.192;2023-08-30T03:11:37;91575.63;;;17.50;85.36
64602;BME280;68371;42.630;23.192;2023-08-30T03:14:04;91573.03;;;17.46;84.87
64602;BME280;68371;42.630;23.192;2023-08-30T03:16:30;91573.84;;;17.39;85.30
64602;BME280;68371;42.630;23.192;2023-08-30T03:18:57;91563.94;;;17.43;85.01
64602;BME280;68371;42.630;23.192;2023-08-30T03:21:24;91565.19;;;17.35;85.21
64602;BME280;68371;42.630;23.192;2023-08-30T03:23:50;91559.41;;;17.44;84.87
64602;BME280;68371;42.630;23.192;2023-08-30T03:26:18;91548.44;;;17.42;85.00
64602;BME280;68371;42.630;23.192;2023-08-30T03:28:45;91549.22;;;17.39;85.14
64602;BME280;68371;42.630;23.192;2023-08-30T03:31:13;91547.03;;;17.34;85.17
64602;BME280;68371;42.630;23.192;2023-08-30T03:33:40;91521.81;;;17.15;85.13
64602;BME280;68371;42.630;23.192;2023-08-30T03:36:07;91538.38;;;17.26;85.50
64602;BME280;68371;42.630;23.192;2023-08-30T03:38:35;91535.38;;;17.24;85.78
64602;BME280;68371;42.630;23.192;2023-08-30T03:41:03;91527.81;;;17.22;85.29
64602;BME280;68371;42.630;23.192;2023-08-30T03:43:31;91536.16;;;17.21;85.10
64602;BME280;68371;42.630;23.192;2023-08-30T03:45:59;91533.16;;;17.19;85.33
64602;BME280;68371;42.630;23.192;2023-08-30T03:48:26;91535.91;;;17.12;84.78
64602;BME280;68371;42.630;23.192;2023-08-30T03:50:54;91550.19;;;17.21;84.45
64602;BME280;68371;42.630;23.192;2023-08-30T03:53:21;91557.03;;;17.19;84.67
64602;BME280;68371;42.630;23.192;2023-08-30T03:55:48;91552.63;;;17.05;84.58
64602;BME280;68371;42.630;23.192;2023-08-30T03:58:15;91560.53;;;17.12;84.82
64602;BME280;68371;42.630;23.192;2023-08-30T04:00:43;91566.53;;;17.16;85.30
64602;BME280;68371;42.630;23.192;2023-08-30T04:03:10;91566.16;;;17.18;84.80
64602;BME280;68371;42.630;23.192;2023-08-30T04:05:37;91560.34;;;17.27;85.00
64602;BME280;68371;42.630;23.192;2023-08-30T04:08:05;91537.31;;;17.20;85.17
64602;BME280;68371;42.630;23.192;2023-08-30T04:10:34;91562.13;;;17.37;85.73
64602;BME280;68371;42.630;23.192;2023-08-30T04:13:02;91570.47;;;17.39;86.51
64602;BME280;68371;42.630;23.192;2023-08-30T04:15:32;91580.28;;;17.42;85.43
64602;BME280;68371;42.630;23.192;2023-08-30T04:18:01;91588.19;;;17.46;85.81
64602;BME280;68371;42.630;23.192;2023-08-30T04:20:28;91605.72;;;17.39;87.03
64602;BME280;68371;42.630;23.192;2023-08-30T04:22:55;91613.28;;;17.41;87.58
64602;BME280;68371;42.630;23.192;2023-08-30T04:25:22;91633.81;;;17.37;88.77
64602;BME280;68371;42.630;23.192;2023-08-30T04:27:48;91641.69;;;17.10;85.26
64602;BME280;68371;42.630;23.192;2023-08-30T04:30:15;91646.97;;;17.10;87.59
64602;BME280;68371;42.630;23.192;2023-08-30T04:32:42;91646.91;;;17.17;89.13
64602;BME280;68371;42.630;23.192;2023-08-30T04:35:10;91652.13;;;17.28;88.40
64602;BME280;68371;42.630;23.192;2023-08-30T04:37:37;91666.91;;;17.25;89.39
64602;BME280;68371;42.630;23.192;2023-08-30T04:40:06;91674.81;;;17.32;89.94
64602;BME280;68371;42.630;23.192;2023-08-30T04:42:34;91693.44;;;17.29;91.48
64602;BME280;68371;42.630;23.192;2023-08-30T04:45:00;91694.53;;;17.31;91.62
64602;BME280;68371;42.630;23.192;2023-08-30T04:47:28;91664.88;;;17.40;92.34
64602;BME280;68371;42.630;23.192;2023-08-30T04:49:54;91660.75;;;17.35;91.95
64602;BME280;68371;42.630;23.192;2023-08-30T04:52:22;91662.25;;;17.36;94.24
64602;BME280;68371;42.630;23.192;2023-08-30T04:54:49;91653.06;;;17.48;93.50
64602;BME280;68371;42.630;23.192;2023-08-30T04:57:16;91636.75;;;17.46;93.57
64602;BME280;68371;42.630;23.192;2023-08-30T04:59:44;91630.81;;;17.35;95.18
64602;BME280;68371;42.630;23.192;2023-08-30T05:02:11;91634.50;;;17.45;95.58
64602;BME280;68371;42.630;23.192;2023-08-30T05:04:38;91628.63;;;17.60;95.38
64602;BME280;68371;42.630;23.192;2023-08-30T05:07:05;91619.63;;;17.51;94.02
64602;BME280;68371;42.630;23.192;2023-08-30T05:09:33;91620.53;;;17.37;94.59
64602;BME280;68371;42.630;23.192;2023-08-30T05:12:00;91628.78;;;17.46;94.28
64602;BME280;68371;42.630;23.192;2023-08-30T05:14:27;91621.16;;;17.52;95.41
64602;BME280;68371;42.630;23.192;2023-08-30T05:16:54;91621.88;;;17.56;95.39
64602;BME280;68371;42.630;23.192;2023-08-30T05:19:21;91623.56;;;17.70;94.58
64602;BME280;68371;42.630;23.192;2023-08-30T05:21:47;91625.09;;;17.71;94.98
64602;BME280;68371;42.630;23.192;2023-08-30T05:24:16;91620.03;;;17.80;94.63
64602;BME280;68371;42.630;23.192;2023-08-30T05:26:45;91618.94;;;17.77;94.79
64602;BME280;68371;42.630;23.192;2023-08-30T05:29:12;91621.16;;;17.82;93.64
64602;BME280;68371;42.630;23.192;2023-08-30T05:31:39;91620.69;;;17.91;94.30
64602;BME280;68371;42.630;23.192;2023-08-30T05:34:06;91622.66;;;17.87;94.45
64602;BME280;68371;42.630;23.192;2023-08-30T05:36:33;91624.44;;;17.94;93.85
64602;BME280;68371;42.630;23.192;2023-08-30T05:39:00;91623.97;;;18.02;91.26
64602;BME280;68371;42.630;23.192;2023-08-30T05:41:28;91631.13;;;18.06;92.13
64602;BME280;68371;42.630;23.192;2023-08-30T05:43:56;91629.22;;;18.06;90.99
64602;BME280;68371;42.630;23.192;2023-08-30T05:46:23;91628.94;;;18.00;91.31
64602;BME280;68371;42.630;23.192;2023-08-30T05:48:50;91616.00;;;18.02;91.10
64602;BME280;68371;42.630;23.192;2023-08-30T05:51:17;91626.84;;;18.15;91.88
64602;BME280;68371;42.630;23.192;2023-08-30T05:53:45;91619.09;;;18.25;91.64
64602;BME280;68371;42.630;23.192;2023-08-30T05:56:12;91626.91;;;18.39;88.66
64602;BME280;68371;42.630;23.192;2023-08-30T05:58:39;91627.53;;;18.47;85.36
64602;BME280;68371;42.630;23.192;2023-08-30T06:01:07;91622.13;;;18.54;86.65
64602;BME280;68371;42.630;23.192;2023-08-30T06:03:35;91625.00;;;18.63;86.11
64602;BME280;68371;42.630;23.192;2023-08-30T06:06:01;91630.97;;;18.71;87.20
64602;BME280;68371;42.630;23.192;2023-08-30T06:08:28;91625.91;;;18.80;87.58
64602;BME280;68371;42.630;23.192;2023-08-30T06:10:55;91627.34;;;18.85;87.27
64602;BME280;68371;42.630;23.192;2023-08-30T06:13:22;91624.94;;;18.94;87.30
64602;BME280;68371;42.630;23.192;2023-08-30T06:15:50;91620.00;;;18.92;86.85
64602;BME280;68371;42.630;23.192;2023-08-30T06:18:19;91629.84;;;18.95;86.33
64602;BME280;68371;42.630;23.192;2023-08-30T06:20:46;91638.34;;;19.10;84.79
64602;BME280;68371;42.630;23.192;2023-08-30T06:23:13;91627.63;;;19.14;84.03
64602;BME280;68371;42.630;23.192;2023-08-30T06:25:40;91644.41;;;19.34;85.34
64602;BME280;68371;42.630;23.192;2023-08-30T06:28:08;91606.94;;;19.21;85.98
64602;BME280;68371;42.630;23.192;2023-08-30T06:30:35;91642.00;;;19.60;86.51
64602;BME280;68371;42.630;23.192;2023-08-30T06:33:02;91641.72;;;19.78;82.20
64602;BME280;68371;42.630;23.192;2023-08-30T06:35:30;91637.34;;;19.88;81.71
64602;BME280;68371;42.630;23.192;2023-08-30T06:37:56;91644.69;;;20.00;83.00
64602;BME280;68371;42.630;23.192;2023-08-30T06:40:23;91638.13;;;20.05;81.29
64602;BME280;68371;42.630;23.192;2023-08-30T06:42:50;91639.41;;;20.16;81.42
64602;BME280;68371;42.630;23.192;2023-08-30T06:45:17;91638.59;;;20.19;82.73
64602;BME280;68371;42.630;23.192;2023-08-30T06:47:43;91638.69;;;20.32;81.89
64602;BME280;68371;42.630;23.192;2023-08-30T06:50:10;91641.69;;;20.34;80.43
64602;BME280;68371;42.630;23.192;2023-08-30T06:52:38;91640.53;;;20.35;80.61
64602;BME280;68371;42.630;23.192;2023-08-30T06:55:06;91644.31;;;20.38;79.85
64602;BME280;68371;42.630;23.192;2023-08-30T06:57:32;91640.84;;;20.37;79.52
64602;BME280;68371;42.630;23.192;2023-08-30T06:59:59;91642.19;;;20.29;78.75
64602;BME280;68371;42.630;23.192;2023-08-30T07:02:33;91638.63;;;20.36;77.83
64602;BME280;68371;42.630;23.192;2023-08-30T07:05:00;91631.13;;;20.47;74.61
64602;BME280;68371;42.630;23.192;2023-08-30T07:07:27;91627.34;;;20.65;72.17
64602;BME280;68371;42.630;23.192;2023-08-30T07:09:55;91633.75;;;20.84;75.03
64602;BME280;68371;42.630;23.192;2023-08-30T07:12:22;91630.41;;;20.96;71.99
64602;BME280;68371;42.630;23.192;2023-08-30T07:14:48;91628.66;;;21.06;66.79
64602;BME280;68371;42.630;23.192;2023-08-30T07:17:15;91637.31;;;21.10;66.90
64602;BME280;68371;42.630;23.192;2023-08-30T07:19:42;91631.81;;;21.17;68.16
64602;BME280;68371;42.630;23.192;2023-08-30T07:22:09;91632.94;;;21.32;67.60
64602;BME280;68371;42.630;23.192;2023-08-30T07:24:36;91633.56;;;21.24;69.74
64602;BME280;68371;42.630;23.192;2023-08-30T07:27:04;91646.34;;;21.16;70.90
64602;BME280;68371;42.630;23.192;2023-08-30T07:29:32;91653.94;;;21.01;72.03
64602;BME280;68371;42.630;23.192;2023-08-30T07:31:59;91664.28;;;20.99;71.49
64602;BME280;68371;42.630;23.192;2023-08-30T07:34:26;91655.19;;;21.13;71.89
64602;BME280;68371;42.630;23.192;2023-08-30T07:36:54;91642.75;;;21.06;69.28
64602;BME280;68371;42.630;23.192;2023-08-30T07:39:21;91640.25;;;21.15;70.88
64602;BME280;68371;42.630;23.192;2023-08-30T07:41:48;91643.31;;;21.14;70.90
64602;BME280;68371;42.630;23.192;2023-08-30T07:44:16;91643.66;;;21.16;69.26
64602;BME280;68371;42.630;23.192;2023-08-30T07:46:45;91641.69;;;21.33;67.85
64602;BME280;68371;42.630;23.192;2023-08-30T07:49:12;91645.38;;;21.39;68.30
64602;BME280;68371;42.630;23.192;2023-08-30T07:51:39;91636.38;;;21.49;67.58
64602;BME280;68371;42.630;23.192;2023-08-30T07:54:06;91646.78;;;21.60;66.62
64602;BME280;68371;42.630;23.192;2023-08-30T07:56:32;91646.91;;;21.69;66.45
64602;BME280;68371;42.630;23.192;2023-08-30T07:58:59;91650.03;;;21.80;65.00
64602;BME280;68371;42.630;23.192;2023-08-30T08:01:28;91648.34;;;21.87;65.76
64602;BME280;68371;42.630;23.192;2023-08-30T08:03:55;91644.06;;;21.89;62.12
64602;BME280;68371;42.630;23.192;2023-08-30T08:06:21;91651.91;;;21.96;62.71
64602;BME280;68371;42.630;23.192;2023-08-30T08:08:48;91655.00;;;21.95;62.30
64602;BME280;68371;42.630;23.192;2023-08-30T08:11:15;91645.16;;;21.92;62.02
64602;BME280;68371;42.630;23.192;2023-08-30T08:13:42;91660.34;;;21.95;63.94
64602;BME280;68371;42.630;23.192;2023-08-30T08:16:09;91658.31;;;21.99;64.05
64602;BME280;68371;42.630;23.192;2023-08-30T08:18:37;91660.81;;;22.06;64.02
64602;BME280;68371;42.630;23.192;2023-08-30T08:21:04;91668.22;;;22.15;64.73
64602;BME280;68371;42.630;23.192;2023-08-30T08:23:31;91673.00;;;22.20;63.45
64602;BME280;68371;42.630;23.192;2023-08-30T08:25:58;91666.53;;;22.34;63.39
64602;BME280;68371;42.630;23.192;2023-08-30T08:28:25;91674.16;;;22.48;61.95
64602;BME280;68371;42.630;23.192;2023-08-30T08:30:52;91669.66;;;22.58;59.17
64602;BME280;68371;42.630;23.192;2023-08-30T08:33:19;91674.69;;;22.56;57.98
64602;BME280;68371;42.630;23.192;2023-08-30T08:35:49;91669.97;;;22.73;59.63
64602;BME280;68371;42.630;23.192;2023-08-30T08:38:16;91674.50;;;22.76;59.03
64602;BME280;68371;42.630;23.192;2023-08-30T08:40:43;91676.31;;;22.79;60.32
64602;BME280;68371;42.630;23.192;2023-08-30T08:43:10;91677.81;;;22.80;58.21
64602;BME280;68371;42.630;23.192;2023-08-30T08:45:38;91670.66;;;22.77;57.31
64602;BME280;68371;42.630;23.192;2023-08-30T08:48:06;91665.28;;;22.64;56.75
64602;BME280;68371;42.630;23.192;2023-08-30T08:50:34;91669.34;;;22.69;58.23
64602;BME280;68371;42.630;23.192;2023-08-30T08:53:03;91662.16;;;22.78;58.65
64602;BME280;68371;42.630;23.192;2023-08-30T08:55:32;91652.09;;;22.83;59.48
64602;BME280;68371;42.630;23.192;2023-08-30T08:58:02;91662.69;;;22.99;57.73
64602;BME280;68371;42.630;23.192;2023-08-30T09:00:30;91662.06;;;23.08;57.82
64602;BME280;68371;42.630;23.192;2023-08-30T09:02:58;91664.41;;;22.93;57.23
64602;BME280;68371;42.630;23.192;2023-08-30T09:05:26;91653.69;;;23.18;58.54
64602;BME280;68371;42.630;23.192;2023-08-30T09:07:54;91650.59;;;23.07;57.49
64602;BME280;68371;42.630;23.192;2023-08-30T09:10:22;91653.16;;;23.11;55.70
64602;BME280;68371;42.630;23.192;2023-08-30T09:12:49;91650.38;;;23.14;58.85
64602;BME280;68371;42.630;23.192;2023-08-30T09:15:16;91638.47;;;23.15;58.35
64602;BME280;68371;42.630;23.192;2023-08-30T09:17:43;91650.19;;;23.44;59.05
64602;BME280;68371;42.630;23.192;2023-08-30T09:20:13;91647.50;;;23.44;54.09
64602;BME280;68371;42.630;23.192;2023-08-30T09:22:41;91646.44;;;23.41;54.60
64602;BME280;68371;42.630;23.192;2023-08-30T09:25:11;91644.81;;;23.44;56.49
64602;BME280;68371;42.630;23.192;2023-08-30T09:27:39;91650.00;;;23.60;54.02
64602;BME280;68371;42.630;23.192;2023-08-30T09:30:08;91662.31;;;23.70;55.62
64602;BME280;68371;42.630;23.192;2023-08-30T09:32:40;91641.34;;;23.91;55.35
64602;BME280;68371;42.630;23.192;2023-08-30T09:35:08;91641.66;;;23.93;52.65
64602;BME280;68371;42.630;23.192;2023-08-30T09:37:35;91638.34;;;24.11;52.94
64602;BME280;68371;42.630;23.192;2023-08-30T09:40:03;91649.63;;;24.06;52.15
64602;BME280;68371;42.630;23.192;2023-08-30T09:42:31;91645.19;;;24.12;52.65
64602;BME280;68371;42.630;23.192;2023-08-30T09:44:59;91644.16;;;24.18;53.00
64602;BME280;68371;42.630;23.192;2023-08-30T09:47:25;91643.56;;;24.14;54.62
64602;BME280;68371;42.630;23.192;2023-08-30T09:49:55;91639.19;;;24.39;55.18
64602;BME280;68371;42.630;23.192;2023-08-30T09:52:23;91636.69;;;24.45;51.65
64602;BME280;68371;42.630;23.192;2023-08-30T09:54:51;91630.78;;;24.50;51.17
64602;BME280;68371;42.630;23.192;2023-08-30T09:57:18;91630.41;;;24.38;52.38
64602;BME280;68371;42.630;23.192;2023-08-30T09:59:46;91628.91;;;24.59;48.35
64602;BME280;68371;42.630;23.192;2023-08-30T10:02:16;91646.59;;;24.88;45.93
64602;BME280;68371;42.630;23.192;2023-08-30T10:04:45;91638.69;;;24.94;45.86
64602;BME280;68371;42.630;23.192;2023-08-30T10:07:12;91625.75;;;25.11;45.23
64602;BME280;68371;42.630;23.192;2023-08-30T10:09:41;91635.19;;;25.34;47.22
64602;BME280;68371;42.630;23.192;2023-08-30T10:12:10;91635.66;;;25.42;43.78
64602;BME280;68371;42.630;23.192;2023-08-30T10:14:37;91630.59;;;25.53;45.24
64602;BME280;68371;42.630;23.192;2023-08-30T10:17:05;91632.09;;;25.72;44.77
64602;BME280;68371;42.630;23.192;2023-08-30T10:19:37;91631.81;;;25.61;44.09
64602;BME280;68371;42.630;23.192;2023-08-30T10:22:04;91620.59;;;25.72;45.14
64602;BME280;68371;42.630;23.192;2023-08-30T10:24:38;91619.97;;;25.86;44.18
64602;BME280;68371;42.630;23.192;2023-08-30T10:27:08;91618.66;;;25.63;43.18
64602;BME280;68371;42.630;23.192;2023-08-30T10:29:38;91616.09;;;25.41;44.65
64602;BME280;68371;42.630;23.192;2023-08-30T10:32:06;91615.66;;;25.33;44.63
64602;BME280;68371;42.630;23.192;2023-08-30T10:34:35;91622.22;;;25.32;45.51
64602;BME280;68371;42.630;23.192;2023-08-30T10:37:06;91619.97;;;25.31;44.08
64602;BME280;68371;42.630;23.192;2023-08-30T10:39:34;91620.59;;;25.35;45.26
64602;BME280;68371;42.630;23.192;2023-08-30T10:42:08;91610.59;;;25.45;46.27
64602;BME280;68371;42.630;23.192;2023-08-30T10:44:35;91610.56;;;25.72;43.48
64602;BME280;68371;42.630;23.192;2023-08-30T10:47:18;91605.94;;;25.73;42.25
64602;BME280;68371;42.630;23.192;2023-08-30T10:49:50;91608.75;;;25.78;42.51
64602;BME280;68371;42.630;23.192;2023-08-30T10:52:19;91599.03;;;25.81;42.28
64602;BME280;68371;42.630;23.192;2023-08-30T10:54:46;91597.41;;;25.93;41.82
64602;BME280;68371;42.630;23.192;2023-08-30T10:57:14;91612.28;;;26.22;41.24
64602;BME280;68371;42.630;23.192;2023-08-30T11:02:30;91613.00;;;26.83;40.20
64602;BME280;68371;42.630;23.192;2023-08-30T11:04:58;91602.56;;;26.76;38.84
64602;BME280;68371;42.630;23.192;2023-08-30T11:07:26;91598.22;;;26.78;39.19
64602;BME280;68371;42.630;23.192;2023-08-30T11:09:53;91608.81;;;26.82;37.53
64602;BME280;68371;42.630;23.192;2023-08-30T11:12:20;91603.13;;;26.80;36.76
64602;BME280;68371;42.630;23.192;2023-08-30T11:14:47;91597.13;;;27.09;36.55
64602;BME280;68371;42.630;23.192;2023-08-30T11:17:15;91604.66;;;27.05;34.03
64602;BME280;68371;42.630;23.192;2023-08-30T11:19:43;91604.13;;;27.16;34.33
64602;BME280;68371;42.630;23.192;2023-08-30T11:22:12;91591.66;;;27.28;35.39
64602;BME280;68371;42.630;23.192;2023-08-30T11:24:39;91585.09;;;27.44;35.29
64602;BME280;68371;42.630;23.192;2023-08-30T11:27:07;91578.44;;;27.69;35.57
64602;BME280;68371;42.630;23.192;2023-08-30T11:29:33;91570.22;;;28.02;34.31
64602;BME280;68371;42.630;23.192;2023-08-30T11:32:00;91581.44;;;28.30;34.60
64602;BME280;68371;42.630;23.192;2023-08-30T11:34:27;91579.56;;;28.36;33.03
64602;BME280;68371;42.630;23.192;2023-08-30T11:36:54;91590.09;;;28.64;33.59
64602;BME280;68371;42.630;23.192;2023-08-30T11:39:22;91578.09;;;28.65;32.80
64602;BME280;68371;42.630;23.192;2023-08-30T11:41:50;91569.81;;;28.89;33.49
64602;BME280;68371;42.630;23.192;2023-08-30T11:44:17;91572.69;;;29.21;32.34
64602;BME280;68371;42.630;23.192;2023-08-30T11:46:43;91565.25;;;29.36;32.82
64602;BME280;68371;42.630;23.192;2023-08-30T11:49:12;91569.25;;;29.41;32.68
64602;BME280;68371;42.630;23.192;2023-08-30T11:51:39;91568.28;;;29.24;31.88
64602;BME280;68371;42.630;23.192;2023-08-30T11:54:07;91567.91;;;29.31;31.31
64602;BME280;68371;42.630;23.192;2023-08-30T11:56:36;91570.56;;;29.72;31.92
64602;BME280;68371;42.630;23.192;2023-08-30T11:59:03;91568.25;;;29.85;30.88
64602;BME280;68371;42.630;23.192;2023-08-30T12:01:30;91535.66;;;30.00;30.25
64602;BME280;68371;42.630;23.192;2023-08-30T12:03:56;91564.66;;;30.58;30.17
64602;BME280;68371;42.630;23.192;2023-08-30T12:06:23;91558.41;;;30.78;30.38
64602;BME280;68371;42.630;23.192;2023-08-30T12:08:57;91567.38;;;30.58;26.86
64602;BME280;68371;42.630;23.192;2023-08-30T12:11:24;91564.41;;;30.24;28.76
64602;BME280;68371;42.630;23.192;2023-08-30T12:13:52;91561.78;;;30.03;29.15
64602;BME280;68371;42.630;23.192;2023-08-30T12:16:19;91559.47;;;30.22;27.11
64602;BME280;68371;42.630;23.192;2023-08-30T12:18:45;91557.66;;;30.40;27.43
64602;BME280;68371;42.630;23.192;2023-08-30T12:21:13;91544.19;;;30.51;25.92
64602;BME280;68371;42.630;23.192;2023-08-30T12:23:40;91550.56;;;30.85;25.57
64602;BME280;68371;42.630;23.192;2023-08-30T12:26:09;91554.91;;;30.71;24.83
64602;BME280;68371;42.630;23.192;2023-08-30T12:28:37;91555.72;;;30.83;26.57
64602;BME280;68371;42.630;23.192;2023-08-30T12:31:06;91557.94;;;31.28;26.38
64602;BME280;68371;42.630;23.192;2023-08-30T12:33:33;91546.22;;;31.65;25.54
64602;BME280;68371;42.630;23.192;2023-08-30T12:36:00;91543.81;;;31.89;25.23
64602;BME280;68371;42.630;23.192;2023-08-30T12:38:27;91540.13;;;31.98;23.74
64602;BME280;68371;42.630;23.192;2023-08-30T12:40:54;91542.38;;;32.28;24.81
64602;BME280;68371;42.630;23.192;2023-08-30T12:43:22;91524.88;;;32.34;23.75
64602;BME280;68371;42.630;23.192;2023-08-30T12:45:50;91524.78;;;31.67;24.83
64602;BME280;68371;42.630;23.192;2023-08-30T12:48:18;91546.53;;;31.84;25.46
64602;BME280;68371;42.630;23.192;2023-08-30T12:50:47;91542.66;;;32.19;25.06
64602;BME280;68371;42.630;23.192;2023-08-30T12:53:14;91533.25;;;32.03;25.18
64602;BME280;68371;42.630;23.192;2023-08-30T12:55:42;91535.72;;;32.40;25.04